METAR Data
IDs: Format: Raw Decoded Include TAF

Data at: 1403 UTC 20 Jul 2019

METAR for:KHPT (Hampton Muni, IA, US)
Text:KHPT 201355Z AUTO 22010G15KT 10SM SCT080 27/24 A2980 RMK AO2
Temperature: 27.0°C ( 81°F)
Dewpoint: 24.0°C ( 75°F) [RH = 84%]
Pressure (altimeter):29.80 inches Hg (1009.2 mb)
Winds:from the SW (220 degrees) at 12 MPH (10 knots; 5.1 m/s) gusting to 17 MPH (15 knots; 7.7 m/s)
Visibility:10 or more sm (16+ km)
Ceiling:at least 12,000 feet AGL
Clouds: scattered clouds at 8000 feet AGL
QC Flag:automated observation with no human augmentation